Time;durP1;ratioP1;P1;durP2;ratioP2;P2;SDS_P1;SDS_P2;PMS_P1;PMS_P2;Temp;Humidity;BMP_temperature;BMP_pressure;BME280_temperature;BME280_humidity;BME280_pressure;Samples;Min_cycle;Max_cycle;Signal;HPM_P1;HPM_P2
2023/07/27 00:00:58;;;;;;;1.00;0.93;;;;;;;;;;5050294;28;20182;-53
2023/07/27 00:03:24;;;;;;;2.38;1.27;;;;;;;;;;5049025;28;20187;-53
2023/07/27 00:05:50;;;;;;;1.17;1.08;;;;;;;;;;5056843;28;20175;-54
2023/07/27 00:08:16;;;;;;;1.90;1.23;;;;;;;;;;5048183;28;20258;-53
2023/07/27 00:10:42;;;;;;;1.60;1.10;;;;;;;;;;5050043;28;20273;-54
2023/07/27 00:13:07;;;;;;;1.02;0.98;;;;;;;;;;5050752;28;20536;-54
2023/07/27 00:15:34;;;;;;;1.35;1.25;;;;;;;;;;5056403;28;20503;-53
2023/07/27 00:18:00;;;;;;;1.20;1.10;;;;;;;;;;5048082;28;20183;-53
2023/07/27 00:20:25;;;;;;;1.20;1.10;;;;;;;;;;5051939;28;20263;-54
2023/07/27 00:22:51;;;;;;;1.40;1.05;;;;;;;;;;5049684;28;20233;-53
2023/07/27 00:25:17;;;;;;;7.13;1.42;;;;;;;;;;5055771;28;20203;-54
2023/07/27 00:27:43;;;;;;;1.27;1.10;;;;;;;;;;5052772;28;20185;-54
2023/07/27 00:30:09;;;;;;;1.25;1.15;;;;;;;;;;5053142;28;20185;-54
2023/07/27 00:32:35;;;;;;;1.20;1.02;;;;;;;;;;5052438;28;20233;-53
2023/07/27 00:35:01;;;;;;;1.30;1.20;;;;;;;;;;5052459;28;20183;-54
2023/07/27 00:37:27;;;;;;;2.35;1.17;;;;;;;;;;5050502;28;20221;-54
2023/07/27 00:39:53;;;;;;;1.15;0.95;;;;;;;;;;5050871;28;20309;-54
2023/07/27 00:42:19;;;;;;;1.17;1.08;;;;;;;;;;5055280;28;20215;-54
2023/07/27 00:44:45;;;;;;;2.17;1.38;;;;;;;;;;5054205;28;20266;-54
2023/07/27 00:47:11;;;;;;;2.35;1.42;;;;;;;;;;5055915;28;20194;-54
2023/07/27 00:49:37;;;;;;;1.30;1.15;;;;;;;;;;5046494;28;20200;-54
2023/07/27 00:52:07;;;;;;;2.05;1.30;;;;;;;;;;5046246;28;20189;-55
2023/07/27 00:54:33;;;;;;;2.38;1.20;;;;;;;;;;5058155;28;20590;-54
2023/07/27 00:56:59;;;;;;;2.42;1.38;;;;;;;;;;5047042;28;20523;-54
2023/07/27 00:59:25;;;;;;;2.00;1.55;;;;;;;;;;5053135;28;20469;-54
2023/07/27 01:01:51;;;;;;;1.30;1.20;;;;;;;;;;5051060;28;20270;-54
2023/07/27 01:04:17;;;;;;;2.42;1.35;;;;;;;;;;5053660;28;20270;-54
2023/07/27 01:06:43;;;;;;;2.25;1.40;;;;;;;;;;5047583;28;20179;-54
2023/07/27 01:09:09;;;;;;;2.17;1.40;;;;;;;;;;5052121;28;20182;-54
2023/07/27 01:11:54;;;;;;;1.35;1.17;;;;;;;;;;5051616;28;20228;-54
2023/07/27 01:14:31;;;;;;;1.65;1.00;;;;;;;;;;5055247;28;20183;-54
2023/07/27 01:17:16;;;;;;;1.63;1.20;;;;;;;;;;5054861;28;20188;-54
2023/07/27 01:19:51;;;;;;;1.92;1.10;;;;;;;;;;5053653;28;20255;-54
2023/07/27 01:22:32;;;;;;;1.58;1.30;;;;;;;;;;5059756;28;20178;-54
2023/07/27 01:25:17;;;;;;;1.10;1.05;;;;;;;;;;5074741;28;20190;-54
2023/07/27 01:27:56;;;;;;;1.05;1.00;;;;;;;;;;5049548;28;20187;-54
2023/07/27 01:30:28;;;;;;;1.30;0.90;;;;;;;;;;5054173;28;20232;-54
2023/07/27 01:32:57;;;;;;;2.08;1.30;;;;;;;;;;5045895;28;20435;-54
2023/07/27 01:35:25;;;;;;;1.20;1.10;;;;;;;;;;5048328;28;20187;-54
2023/07/27 01:37:51;;;;;;;1.27;1.15;;;;;;;;;;5047416;28;20191;-54
2023/07/27 01:40:17;;;;;;;1.50;1.38;;;;;;;;;;5044117;28;20602;-54
2023/07/27 01:42:44;;;;;;;1.55;1.17;;;;;;;;;;5052082;28;20229;-54
2023/07/27 01:45:11;;;;;;;2.88;1.55;;;;;;;;;;5053321;28;20189;-54
2023/07/27 01:47:38;;;;;;;1.30;1.20;;;;;;;;;;5051347;28;20194;-54
2023/07/27 01:50:05;;;;;;;2.00;1.10;;;;;;;;;;5047240;28;20179;-54
2023/07/27 01:52:31;;;;;;;1.75;1.30;;;;;;;;;;5056183;28;20493;-54
2023/07/27 01:54:57;;;;;;;1.30;1.20;;;;;;;;;;5059109;28;20219;-54
2023/07/27 01:57:24;;;;;;;1.40;1.30;;;;;;;;;;5053010;28;20187;-54
2023/07/27 01:59:50;;;;;;;1.50;1.15;;;;;;;;;;5045844;28;20210;-54
2023/07/27 02:02:16;;;;;;;1.67;1.00;;;;;;;;;;5044179;28;20551;-54
2023/07/27 02:04:42;;;;;;;1.50;1.00;;;;;;;;;;5051508;28;20224;-54
2023/07/27 02:07:08;;;;;;;2.03;1.25;;;;;;;;;;5053309;28;20680;-54
2023/07/27 02:09:34;;;;;;;1.27;1.17;;;;;;;;;;5047358;28;20185;-54
2023/07/27 02:12:02;;;;;;;2.75;1.50;;;;;;;;;;5049432;28;20567;-54
2023/07/27 02:14:33;;;;;;;2.08;1.30;;;;;;;;;;5049245;28;20191;-54
2023/07/27 02:17:02;;;;;;;2.80;1.00;;;;;;;;;;5048400;28;20175;-54
2023/07/27 02:19:33;;;;;;;1.63;1.27;;;;;;;;;;5048992;28;20568;-54
2023/07/27 02:21:59;;;;;;;2.17;1.30;;;;;;;;;;5055423;28;20182;-54
2023/07/27 02:24:26;;;;;;;1.30;1.10;;;;;;;;;;5066971;28;20270;-54
2023/07/27 02:26:52;;;;;;;1.65;1.25;;;;;;;;;;5053956;28;20654;-54
2023/07/27 02:29:18;;;;;;;1.50;1.40;;;;;;;;;;5054093;28;20274;-54
2023/07/27 02:31:44;;;;;;;2.08;1.58;;;;;;;;;;5049401;28;20183;-54
2023/07/27 02:34:10;;;;;;;1.40;1.30;;;;;;;;;;5054325;28;20278;-54
2023/07/27 02:36:36;;;;;;;1.30;1.20;;;;;;;;;;5044801;28;20214;-54
2023/07/27 02:39:02;;;;;;;2.47;2.10;;;;;;;;;;5040287;28;20216;-54
2023/07/27 02:41:28;;;;;;;2.15;1.40;;;;;;;;;;5044524;28;20176;-54
2023/07/27 02:43:54;;;;;;;1.42;1.33;;;;;;;;;;5041534;28;20182;-54
2023/07/27 02:46:20;;;;;;;1.10;1.00;;;;;;;;;;5038994;28;20183;-54
2023/07/27 02:48:46;;;;;;;1.27;1.15;;;;;;;;;;5045234;28;20610;-54
2023/07/27 02:51:12;;;;;;;1.25;1.15;;;;;;;;;;5043426;28;20197;-54
2023/07/27 02:53:37;;;;;;;1.35;1.25;;;;;;;;;;5064484;28;20201;-54
2023/07/27 02:56:04;;;;;;;1.33;1.17;;;;;;;;;;5056256;28;20179;-54
2023/07/27 02:58:30;;;;;;;1.05;0.98;;;;;;;;;;5057432;28;20194;-54
2023/07/27 03:00:58;;;;;;;1.27;1.17;;;;;;;;;;5053072;28;20253;-54
2023/07/27 03:03:24;;;;;;;1.30;1.20;;;;;;;;;;5054127;28;20186;-54
2023/07/27 03:05:56;;;;;;;2.97;1.45;;;;;;;;;;5057846;28;20220;-54
2023/07/27 03:08:22;;;;;;;2.40;1.17;;;;;;;;;;5052187;28;20187;-54
2023/07/27 03:10:48;;;;;;;1.83;1.40;;;;;;;;;;5049099;28;20187;-54
2023/07/27 03:13:14;;;;;;;1.40;1.30;;;;;;;;;;5057732;28;20175;-54
2023/07/27 03:15:40;;;;;;;1.85;1.67;;;;;;;;;;5047792;28;20542;-54
2023/07/27 03:18:07;;;;;;;1.98;1.17;;;;;;;;;;5049999;28;20254;-54
2023/07/27 03:20:40;;;;;;;1.95;1.40;;;;;;;;;;5055396;28;20183;-54
2023/07/27 03:23:06;;;;;;;1.88;1.30;;;;;;;;;;5069814;28;20513;-54
2023/07/27 03:25:33;;;;;;;1.30;1.20;;;;;;;;;;5076699;28;20719;-54
2023/07/27 03:27:59;;;;;;;2.35;1.50;;;;;;;;;;5053897;28;20183;-54
2023/07/27 03:30:25;;;;;;;3.40;1.40;;;;;;;;;;5056253;28;20492;-54
2023/07/27 03:32:50;;;;;;;3.10;1.38;;;;;;;;;;5057274;28;20183;-54
2023/07/27 03:35:16;;;;;;;1.67;1.55;;;;;;;;;;5054142;28;20187;-54
2023/07/27 03:37:42;;;;;;;1.25;1.13;;;;;;;;;;5052469;28;20179;-54
2023/07/27 03:40:08;;;;;;;1.63;1.50;;;;;;;;;;5048037;28;20623;-54
2023/07/27 03:42:34;;;;;;;1.63;1.23;;;;;;;;;;5043093;28;20192;-54
2023/07/27 03:45:00;;;;;;;2.08;1.33;;;;;;;;;;5053161;28;20179;-54
2023/07/27 03:47:26;;;;;;;4.60;1.40;;;;;;;;;;5045750;28;20203;-54
2023/07/27 03:49:52;;;;;;;3.28;1.40;;;;;;;;;;5051675;28;20180;-54
2023/07/27 03:52:18;;;;;;;2.55;1.73;;;;;;;;;;5060705;28;20465;-54
2023/07/27 03:54:44;;;;;;;3.00;1.60;;;;;;;;;;5074481;28;20588;-54
2023/07/27 03:57:10;;;;;;;2.22;1.52;;;;;;;;;;5055898;28;20495;-54
2023/07/27 03:59:36;;;;;;;1.58;1.20;;;;;;;;;;5049104;28;20603;-54
2023/07/27 04:02:02;;;;;;;3.70;1.70;;;;;;;;;;5054226;28;20217;-54
2023/07/27 04:04:28;;;;;;;2.40;1.60;;;;;;;;;;5052277;28;20448;-54
2023/07/27 04:06:54;;;;;;;3.45;1.60;;;;;;;;;;5053869;28;20225;-54
2023/07/27 04:09:20;;;;;;;2.58;1.58;;;;;;;;;;5052947;28;20206;-54
2023/07/27 04:11:46;;;;;;;3.97;1.85;;;;;;;;;;5048148;28;20229;-54
2023/07/27 04:14:12;;;;;;;2.42;1.60;;;;;;;;;;5052096;28;20555;-54
2023/07/27 04:16:37;;;;;;;4.28;2.05;;;;;;;;;;5049327;28;20230;-54
2023/07/27 04:19:03;;;;;;;4.22;1.67;;;;;;;;;;5055419;28;20205;-54
2023/07/27 04:21:29;;;;;;;2.92;1.83;;;;;;;;;;5050025;28;20194;-54
2023/07/27 04:23:55;;;;;;;3.40;1.52;;;;;;;;;;5049852;28;20191;-54
2023/07/27 04:26:21;;;;;;;2.38;1.50;;;;;;;;;;5047861;28;20563;-54
2023/07/27 04:28:47;;;;;;;3.90;1.73;;;;;;;;;;5050982;28;20183;-54
2023/07/27 04:31:13;;;;;;;1.58;1.48;;;;;;;;;;5047546;28;20187;-54
2023/07/27 04:33:39;;;;;;;3.88;1.38;;;;;;;;;;5049870;28;20189;-54
2023/07/27 04:36:05;;;;;;;3.50;1.60;;;;;;;;;;5053812;28;20226;-54
2023/07/27 04:38:31;;;;;;;2.33;1.42;;;;;;;;;;5051422;28;20203;-54
2023/07/27 04:40:57;;;;;;;4.55;1.83;;;;;;;;;;5052182;28;20739;-54
2023/07/27 04:43:23;;;;;;;3.97;1.98;;;;;;;;;;5055962;28;20263;-54
2023/07/27 04:45:49;;;;;;;3.17;1.85;;;;;;;;;;5051228;28;20183;-54
2023/07/27 04:48:15;;;;;;;3.35;1.70;;;;;;;;;;5047461;28;20716;-54
2023/07/27 04:50:40;;;;;;;2.78;1.38;;;;;;;;;;5052154;28;20197;-54
2023/07/27 04:53:06;;;;;;;2.95;1.52;;;;;;;;;;5068823;28;20217;-54
2023/07/27 04:55:32;;;;;;;3.13;1.90;;;;;;;;;;5055481;28;20271;-54
2023/07/27 04:57:59;;;;;;;2.75;1.48;;;;;;;;;;5049468;28;20267;-54
2023/07/27 05:00:25;;;;;;;5.90;1.83;;;;;;;;;;5050036;28;20241;-54
2023/07/27 05:02:51;;;;;;;3.40;1.80;;;;;;;;;;5041462;28;20199;-54
2023/07/27 05:05:17;;;;;;;2.28;1.40;;;;;;;;;;5055533;28;20183;-54
2023/07/27 05:07:43;;;;;;;2.88;1.38;;;;;;;;;;5055088;28;20179;-54
2023/07/27 05:10:09;;;;;;;2.90;1.58;;;;;;;;;;5053981;28;20194;-54
2023/07/27 05:12:35;;;;;;;3.28;1.67;;;;;;;;;;5055293;28;20242;-54
2023/07/27 05:15:01;;;;;;;2.58;1.65;;;;;;;;;;5054575;28;20167;-54
2023/07/27 05:17:27;;;;;;;3.75;1.55;;;;;;;;;;5052224;28;20211;-54
2023/07/27 05:19:57;;;;;;;3.85;1.40;;;;;;;;;;5046989;28;20225;-54
2023/07/27 05:22:23;;;;;;;2.83;1.60;;;;;;;;;;5061562;28;20257;-54
2023/07/27 05:24:48;;;;;;;4.45;1.58;;;;;;;;;;5073962;28;20281;-54
2023/07/27 05:27:14;;;;;;;2.92;1.20;;;;;;;;;;5074680;28;20183;-54
2023/07/27 05:29:42;;;;;;;1.50;1.40;;;;;;;;;;5051112;28;20186;-54
2023/07/27 05:32:08;;;;;;;1.30;1.15;;;;;;;;;;5052639;28;20449;-54
2023/07/27 05:34:34;;;;;;;6.63;1.65;;;;;;;;;;5050331;28;20219;-54
2023/07/27 05:37:00;;;;;;;7.07;2.65;;;;;;;;;;5046478;28;20297;-54
2023/07/27 05:39:28;;;;;;;6.68;1.63;;;;;;;;;;5048245;28;20228;-54
2023/07/27 05:41:54;;;;;;;5.60;1.92;;;;;;;;;;5054276;28;20569;-54
2023/07/27 05:44:21;;;;;;;2.80;1.75;;;;;;;;;;5053354;28;20202;-54
2023/07/27 05:46:47;;;;;;;5.05;2.15;;;;;;;;;;5053640;28;20179;-54
2023/07/27 05:49:12;;;;;;;2.97;1.77;;;;;;;;;;5047898;28;20305;-54
2023/07/27 05:51:38;;;;;;;4.95;1.60;;;;;;;;;;5052568;28;20214;-54
2023/07/27 05:54:04;;;;;;;2.10;1.70;;;;;;;;;;5074548;28;20178;-54
2023/07/27 05:56:30;;;;;;;2.22;1.67;;;;;;;;;;5053835;28;20559;-54
2023/07/27 05:58:56;;;;;;;2.15;1.55;;;;;;;;;;5053304;28;20234;-54
2023/07/27 06:01:22;;;;;;;2.33;1.55;;;;;;;;;;5044804;28;20183;-54
2023/07/27 06:03:48;;;;;;;2.30;1.65;;;;;;;;;;5046770;28;20190;-54
2023/07/27 06:06:15;;;;;;;3.13;1.25;;;;;;;;;;5050641;28;20271;-54
2023/07/27 06:08:41;;;;;;;2.03;1.75;;;;;;;;;;5054043;28;20203;-54
2023/07/27 06:11:09;;;;;;;3.80;2.25;;;;;;;;;;5050476;28;20730;-54
2023/07/27 06:13:35;;;;;;;1.92;1.60;;;;;;;;;;5054133;28;20210;-54
2023/07/27 06:16:01;;;;;;;2.35;1.65;;;;;;;;;;5049667;28;20197;-54
2023/07/27 06:18:27;;;;;;;2.58;1.85;;;;;;;;;;5053602;28;20817;-54
2023/07/27 06:20:53;;;;;;;2.00;1.58;;;;;;;;;;5051354;28;20218;-55
2023/07/27 06:23:19;;;;;;;4.43;2.00;;;;;;;;;;5056900;28;20189;-54
2023/07/27 06:25:46;;;;;;;2.20;1.70;;;;;;;;;;5051796;28;20657;-54
2023/07/27 06:28:12;;;;;;;4.47;1.73;;;;;;;;;;5054672;28;20417;-54
2023/07/27 06:30:38;;;;;;;2.25;1.63;;;;;;;;;;5048325;28;20183;-54
2023/07/27 06:33:05;;;;;;;2.15;1.85;;;;;;;;;;5057886;28;20187;-54
2023/07/27 06:35:31;;;;;;;3.92;1.50;;;;;;;;;;5054846;28;20258;-54
2023/07/27 06:37:57;;;;;;;4.13;1.95;;;;;;;;;;5057715;28;20283;-54
2023/07/27 06:40:24;;;;;;;2.35;1.85;;;;;;;;;;5055253;28;20210;-54
2023/07/27 06:42:50;;;;;;;3.95;1.70;;;;;;;;;;5057496;28;20626;-54
2023/07/27 06:45:16;;;;;;;1.60;1.50;;;;;;;;;;5056176;28;20278;-54
2023/07/27 06:47:41;;;;;;;3.63;1.75;;;;;;;;;;5053096;28;20198;-54
2023/07/27 06:50:08;;;;;;;2.50;1.85;;;;;;;;;;5054681;28;20175;-54
2023/07/27 06:52:33;;;;;;;2.15;1.60;;;;;;;;;;5064798;28;20210;-54
2023/07/27 06:54:59;;;;;;;2.40;1.52;;;;;;;;;;5063872;28;20186;-54
2023/07/27 06:57:26;;;;;;;3.03;1.60;;;;;;;;;;5054799;28;20642;-54
2023/07/27 06:59:51;;;;;;;2.00;1.55;;;;;;;;;;5055624;28;20292;-54
2023/07/27 07:02:17;;;;;;;4.03;1.85;;;;;;;;;;5053894;28;20211;-54
2023/07/27 07:04:44;;;;;;;4.00;1.77;;;;;;;;;;5057815;28;20198;-54
2023/07/27 07:07:11;;;;;;;2.92;2.10;;;;;;;;;;5057638;28;20562;-54
2023/07/27 07:09:38;;;;;;;2.10;1.70;;;;;;;;;;5054226;28;20579;-54
2023/07/27 07:12:05;;;;;;;1.92;1.50;;;;;;;;;;5049268;28;20179;-54
2023/07/27 07:14:31;;;;;;;1.80;1.70;;;;;;;;;;5056964;28;20179;-54
2023/07/27 07:16:58;;;;;;;2.50;1.70;;;;;;;;;;5057590;28;20183;-54
2023/07/27 07:19:24;;;;;;;2.08;1.85;;;;;;;;;;5056208;28;20456;-54
2023/07/27 07:21:50;;;;;;;2.38;1.90;;;;;;;;;;5050908;28;20218;-54
2023/07/27 07:24:16;;;;;;;2.08;1.80;;;;;;;;;;5056368;28;20219;-54
2023/07/27 07:26:42;;;;;;;1.65;1.55;;;;;;;;;;5043867;28;20581;-50
2023/07/27 07:29:09;;;;;;;19.10;3.90;;;;;;;;;;5054730;28;20182;-52
2023/07/27 07:31:35;;;;;;;20.92;3.90;;;;;;;;;;5055179;28;20187;-50
2023/07/27 07:34:01;;;;;;;9.52;2.72;;;;;;;;;;5055018;28;20464;-50
2023/07/27 07:36:27;;;;;;;11.93;3.08;;;;;;;;;;5056562;28;20610;-50
2023/07/27 07:38:53;;;;;;;11.02;2.85;;;;;;;;;;5056615;28;20202;-49
2023/07/27 07:41:19;;;;;;;10.65;2.55;;;;;;;;;;5053917;28;20424;-50
2023/07/27 07:43:44;;;;;;;9.30;2.08;;;;;;;;;;5050663;28;20186;-50
2023/07/27 07:46:14;;;;;;;5.30;2.10;;;;;;;;;;5052087;28;20500;-50
2023/07/27 07:48:40;;;;;;;11.75;2.92;;;;;;;;;;5051845;28;20187;-50
2023/07/27 07:51:12;;;;;;;6.63;2.15;;;;;;;;;;5053702;28;20214;-50
2023/07/27 07:53:38;;;;;;;10.48;1.90;;;;;;;;;;5058860;28;20172;-50
2023/07/27 07:56:04;;;;;;;6.72;2.10;;;;;;;;;;5058687;28;20439;-50
2023/07/27 07:58:30;;;;;;;7.68;2.03;;;;;;;;;;5058335;28;20241;-50
2023/07/27 08:00:56;;;;;;;9.07;2.58;;;;;;;;;;5058439;28;20168;-50
2023/07/27 08:03:22;;;;;;;7.43;2.10;;;;;;;;;;5058550;28;20178;-50
2023/07/27 08:05:48;;;;;;;2.45;1.75;;;;;;;;;;5058755;28;20575;-50
2023/07/27 08:08:14;;;;;;;3.65;1.63;;;;;;;;;;5058740;28;20179;-50
2023/07/27 08:10:40;;;;;;;5.47;1.83;;;;;;;;;;5058480;28;20182;-50
2023/07/27 08:13:06;;;;;;;4.20;1.60;;;;;;;;;;5058648;28;20447;-51
2023/07/27 08:15:32;;;;;;;3.30;1.75;;;;;;;;;;5058784;28;20566;-50
2023/07/27 08:17:58;;;;;;;1.85;1.40;;;;;;;;;;5058522;28;20171;-50
2023/07/27 08:20:25;;;;;;;2.90;1.60;;;;;;;;;;5058266;28;20191;-50
2023/07/27 08:22:51;;;;;;;3.47;1.75;;;;;;;;;;5058408;28;20470;-50
2023/07/27 08:25:17;;;;;;;2.13;1.40;;;;;;;;;;5057596;28;20193;-50
2023/07/27 08:27:43;;;;;;;4.38;1.40;;;;;;;;;;5058402;28;20258;-50
2023/07/27 08:30:09;;;;;;;1.73;1.58;;;;;;;;;;5058205;28;20205;-50
2023/07/27 08:32:35;;;;;;;3.13;1.70;;;;;;;;;;5058420;28;20183;-50
2023/07/27 08:35:01;;;;;;;2.20;1.58;;;;;;;;;;5058393;28;20178;-50
2023/07/27 08:37:27;;;;;;;2.85;1.55;;;;;;;;;;5058137;28;20534;-51
2023/07/27 08:39:53;;;;;;;2.50;1.48;;;;;;;;;;5057128;28;20195;-50
2023/07/27 08:42:19;;;;;;;2.75;1.67;;;;;;;;;;5058086;28;20485;-50
2023/07/27 08:44:46;;;;;;;1.92;1.50;;;;;;;;;;5058491;28;20520;-50
2023/07/27 08:47:12;;;;;;;1.83;1.27;;;;;;;;;;5058079;28;20167;-50
2023/07/27 08:49:38;;;;;;;2.20;1.60;;;;;;;;;;5057342;28;20199;-50
2023/07/27 08:52:04;;;;;;;1.48;1.38;;;;;;;;;;5060776;28;20687;-50
2023/07/27 08:54:30;;;;;;;1.75;1.40;;;;;;;;;;5049880;28;20431;-50
2023/07/27 08:56:56;;;;;;;2.58;1.67;;;;;;;;;;5051855;28;20562;-50
2023/07/27 08:59:24;;;;;;;1.40;1.30;;;;;;;;;;5056233;28;20201;-50
2023/07/27 09:01:50;;;;;;;1.50;1.40;;;;;;;;;;5050959;28;20179;-51
2023/07/27 09:04:16;;;;;;;1.77;1.33;;;;;;;;;;5047461;28;20184;-50
2023/07/27 09:06:46;;;;;;;1.60;1.50;;;;;;;;;;5055496;28;20185;-50
2023/07/27 09:09:20;;;;;;;3.35;1.95;;;;;;;;;;5055028;28;20202;-50
2023/07/27 09:11:46;;;;;;;1.40;1.30;;;;;;;;;;5048649;28;20612;-50
2023/07/27 09:14:13;;;;;;;2.13;1.52;;;;;;;;;;5053607;28;20229;-50
2023/07/27 09:16:39;;;;;;;1.55;1.30;;;;;;;;;;5055232;28;20187;-50
2023/07/27 09:19:06;;;;;;;2.22;1.50;;;;;;;;;;5054943;28;20209;-50
2023/07/27 09:21:44;;;;;;;3.15;1.50;;;;;;;;;;5054351;28;20228;-50
2023/07/27 09:24:10;;;;;;;2.35;1.42;;;;;;;;;;5048050;28;20562;-44
2023/07/27 09:26:43;;;;;;;1.67;1.30;;;;;;;;;;5053990;28;20174;-47
2023/07/27 09:29:09;;;;;;;1.73;1.55;;;;;;;;;;5053992;28;20197;-50
2023/07/27 09:31:49;;;;;;;17.80;3.65;;;;;;;;;;5053487;28;20183;-49
2023/07/27 09:34:15;;;;;;;1.60;1.48;;;;;;;;;;5053955;28;20198;-47
2023/07/27 09:36:41;;;;;;;2.40;1.50;;;;;;;;;;5054867;28;20221;-45
2023/07/27 09:39:08;;;;;;;2.60;1.60;;;;;;;;;;5046650;28;20199;-44
2023/07/27 09:41:34;;;;;;;3.60;1.77;;;;;;;;;;5053962;28;20175;-47
2023/07/27 09:44:02;;;;;;;2.20;1.33;;;;;;;;;;5050735;28;20219;-43
2023/07/27 09:46:28;;;;;;;2.97;1.52;;;;;;;;;;5054311;28;20175;-42
2023/07/27 09:48:55;;;;;;;2.35;1.52;;;;;;;;;;5053320;28;20227;-46
2023/07/27 09:51:21;;;;;;;3.47;1.73;;;;;;;;;;5052904;28;20203;-45
2023/07/27 09:53:48;;;;;;;1.80;1.70;;;;;;;;;;5057554;28;20396;-45
2023/07/27 09:56:15;;;;;;;2.65;1.92;;;;;;;;;;5048891;28;20266;-48
2023/07/27 09:58:41;;;;;;;3.13;2.00;;;;;;;;;;5045304;28;20211;-45
2023/07/27 10:01:08;;;;;;;2.88;1.55;;;;;;;;;;5046899;28;20509;-46
2023/07/27 10:03:34;;;;;;;2.10;1.60;;;;;;;;;;5046938;28;20258;-46
2023/07/27 10:06:00;;;;;;;3.88;1.60;;;;;;;;;;5047061;28;20312;-46
2023/07/27 10:08:26;;;;;;;7.68;1.60;;;;;;;;;;5054332;28;20179;-47
2023/07/27 10:10:53;;;;;;;4.60;1.65;;;;;;;;;;5049589;28;20190;-47
2023/07/27 10:13:22;;;;;;;1.40;1.30;;;;;;;;;;5053298;28;20269;-47
2023/07/27 10:15:49;;;;;;;6.70;1.38;;;;;;;;;;5045634;28;20194;-47
2023/07/27 10:18:15;;;;;;;2.03;1.50;;;;;;;;;;5053041;28;20175;-51
2023/07/27 10:20:41;;;;;;;8.77;1.70;;;;;;;;;;5049203;28;20224;-49
2023/07/27 10:23:26;;;;;;;2.83;1.70;;;;;;;;;;5056317;28;20482;-51
2023/07/27 10:25:55;;;;;;;4.85;2.83;;;;;;;;;;5053925;28;20415;-51
2023/07/27 10:28:41;;;;;;;7.63;2.08;;;;;;;;;;5049354;28;20179;-51
2023/07/27 10:31:15;;;;;;;5.55;1.73;;;;;;;;;;5046581;28;20181;-51
2023/07/27 10:33:47;;;;;;;5.20;1.70;;;;;;;;;;5051905;28;20684;-51
2023/07/27 10:36:13;;;;;;;4.60;1.70;;;;;;;;;;5050316;28;20179;-51
2023/07/27 10:38:39;;;;;;;3.65;1.30;;;;;;;;;;5054230;28;20241;-51
2023/07/27 10:41:12;;;;;;;3.78;1.73;;;;;;;;;;5050628;28;20243;-51
2023/07/27 10:43:38;;;;;;;4.10;1.70;;;;;;;;;;5046667;28;20183;-51
2023/07/27 10:46:21;;;;;;;3.88;1.80;;;;;;;;;;5053866;28;20862;-51
2023/07/27 10:49:09;;;;;;;1.65;1.52;;;;;;;;;;5046552;28;20186;-51
2023/07/27 10:51:35;;;;;;;3.70;1.52;;;;;;;;;;5049236;28;20191;-51
2023/07/27 10:54:01;;;;;;;2.13;1.70;;;;;;;;;;5053777;28;20252;-51
2023/07/27 10:56:27;;;;;;;2.03;1.35;;;;;;;;;;5053330;28;20190;-50
2023/07/27 10:58:59;;;;;;;2.30;1.55;;;;;;;;;;5051587;28;20199;-51
2023/07/27 11:01:25;;;;;;;3.00;1.60;;;;;;;;;;5047919;28;20183;-51
2023/07/27 11:03:51;;;;;;;4.10;2.10;;;;;;;;;;5053097;28;20188;-51
2023/07/27 11:06:17;;;;;;;2.50;1.73;;;;;;;;;;5047146;28;20187;-51
2023/07/27 11:08:44;;;;;;;1.90;1.45;;;;;;;;;;5049957;28;20254;-52
2023/07/27 11:11:20;;;;;;;2.38;1.80;;;;;;;;;;5050727;28;20190;-51
2023/07/27 11:13:47;;;;;;;2.55;2.00;;;;;;;;;;5055729;28;20195;-51
2023/07/27 11:16:13;;;;;;;2.05;1.48;;;;;;;;;;5057473;28;20179;-51
2023/07/27 11:18:40;;;;;;;2.28;1.88;;;;;;;;;;5057490;28;20249;-51
2023/07/27 11:21:08;;;;;;;2.38;1.67;;;;;;;;;;5056024;28;20175;-51
2023/07/27 11:23:40;;;;;;;1.67;1.35;;;;;;;;;;5060007;28;20186;-50
2023/07/27 11:26:06;;;;;;;2.13;1.60;;;;;;;;;;5056879;28;20183;-54
2023/07/27 11:28:33;;;;;;;1.83;1.58;;;;;;;;;;5061039;28;20249;-49
2023/07/27 11:31:00;;;;;;;2.72;1.45;;;;;;;;;;5077052;28;20301;-49
2023/07/27 11:33:32;;;;;;;3.25;1.52;;;;;;;;;;5041770;28;20250;-49
2023/07/27 11:35:59;;;;;;;2.58;1.75;;;;;;;;;;5056400;28;20187;-51
2023/07/27 11:38:25;;;;;;;1.42;1.33;;;;;;;;;;5054792;28;20229;-49
2023/07/27 11:40:54;;;;;;;1.80;1.70;;;;;;;;;;5054942;28;20191;-50
2023/07/27 11:43:20;;;;;;;1.77;1.58;;;;;;;;;;5054648;28;20203;-49
2023/07/27 11:45:47;;;;;;;1.60;1.50;;;;;;;;;;5055265;28;20233;-49
2023/07/27 11:48:13;;;;;;;1.63;1.52;;;;;;;;;;5054448;28;20266;-50
2023/07/27 11:50:39;;;;;;;1.80;1.58;;;;;;;;;;5055987;28;20270;-49
2023/07/27 11:53:12;;;;;;;3.05;1.88;;;;;;;;;;5057548;28;20266;-49
2023/07/27 11:55:38;;;;;;;2.28;1.83;;;;;;;;;;5042944;28;20183;-50
2023/07/27 11:58:10;;;;;;;1.77;1.60;;;;;;;;;;5050164;28;20605;-49
2023/07/27 12:00:37;;;;;;;2.38;1.70;;;;;;;;;;5042217;28;20624;-49
2023/07/27 12:03:04;;;;;;;4.00;1.80;;;;;;;;;;5055548;28;20187;-50
2023/07/27 12:05:33;;;;;;;2.20;1.65;;;;;;;;;;5048393;28;20179;-49
2023/07/27 12:08:00;;;;;;;2.22;1.83;;;;;;;;;;5050184;28;20179;-50
2023/07/27 12:10:26;;;;;;;1.88;1.70;;;;;;;;;;5056259;28;20225;-49
2023/07/27 12:13:01;;;;;;;2.88;1.77;;;;;;;;;;5053411;28;20188;-51
2023/07/27 12:15:31;;;;;;;1.80;1.67;;;;;;;;;;5055090;28;20812;-49
2023/07/27 12:17:58;;;;;;;1.70;1.60;;;;;;;;;;5046650;28;20215;-49
2023/07/27 12:20:24;;;;;;;3.42;2.08;;;;;;;;;;5055603;28;20293;-49
2023/07/27 12:22:50;;;;;;;4.40;2.00;;;;;;;;;;5057315;28;20194;-49
2023/07/27 12:25:16;;;;;;;1.95;1.73;;;;;;;;;;5071901;28;20198;-50
2023/07/27 12:27:42;;;;;;;2.60;1.95;;;;;;;;;;5057256;28;20462;-49
2023/07/27 12:30:09;;;;;;;2.22;2.03;;;;;;;;;;5052747;28;20195;-49
2023/07/27 12:32:35;;;;;;;2.55;2.00;;;;;;;;;;5055077;28;20187;-50
2023/07/27 12:35:02;;;;;;;2.45;2.17;;;;;;;;;;5046981;28;20207;-50
2023/07/27 12:37:29;;;;;;;1.73;1.63;;;;;;;;;;5040738;28;20192;-50
2023/07/27 12:39:55;;;;;;;1.85;1.75;;;;;;;;;;5047063;28;20207;-50
2023/07/27 12:42:21;;;;;;;2.30;1.50;;;;;;;;;;5055033;28;20210;-50
2023/07/27 12:44:47;;;;;;;4.30;1.90;;;;;;;;;;5055380;28;20171;-50
2023/07/27 12:47:13;;;;;;;3.67;1.90;;;;;;;;;;5051273;28;20184;-50
2023/07/27 12:49:39;;;;;;;2.50;1.85;;;;;;;;;;5055935;28;20266;-50
2023/07/27 12:52:05;;;;;;;3.55;1.83;;;;;;;;;;5059220;28;20502;-49
2023/07/27 12:54:31;;;;;;;4.55;1.77;;;;;;;;;;5065050;28;20213;-50
2023/07/27 12:56:58;;;;;;;3.38;1.90;;;;;;;;;;5048303;28;20266;-50
2023/07/27 12:59:25;;;;;;;2.10;1.77;;;;;;;;;;5055333;28;20439;-49
2023/07/27 13:01:51;;;;;;;1.50;1.40;;;;;;;;;;5053583;28;20175;-50
2023/07/27 13:04:17;;;;;;;3.25;1.90;;;;;;;;;;5051375;28;20440;-50
2023/07/27 13:06:43;;;;;;;2.10;1.90;;;;;;;;;;5055131;28;20550;-49
2023/07/27 13:09:09;;;;;;;2.47;1.77;;;;;;;;;;5053672;28;20199;-50
2023/07/27 13:11:35;;;;;;;2.05;1.67;;;;;;;;;;5054101;28;20186;-49
2023/07/27 13:14:02;;;;;;;4.75;1.60;;;;;;;;;;5055488;28;20197;-49
2023/07/27 13:16:28;;;;;;;2.33;1.80;;;;;;;;;;5054034;28;20221;-50
2023/07/27 13:18:54;;;;;;;3.20;1.50;;;;;;;;;;5045390;28;20223;-49
2023/07/27 13:21:19;;;;;;;1.98;1.33;;;;;;;;;;5050692;28;20233;-50
2023/07/27 13:23:46;;;;;;;2.60;1.52;;;;;;;;;;5054405;28;20195;-50
2023/07/27 13:26:13;;;;;;;1.55;1.45;;;;;;;;;;5054852;28;20175;-50
2023/07/27 13:28:39;;;;;;;2.47;1.60;;;;;;;;;;5054416;28;20175;-50
2023/07/27 13:31:05;;;;;;;2.17;1.63;;;;;;;;;;5052798;28;20213;-50
2023/07/27 13:33:30;;;;;;;3.03;1.80;;;;;;;;;;5054900;28;20543;-51
2023/07/27 13:35:56;;;;;;;2.53;1.50;;;;;;;;;;5052507;28;20176;-50
2023/07/27 13:38:22;;;;;;;1.67;1.48;;;;;;;;;;5050085;28;20203;-49
2023/07/27 13:40:49;;;;;;;2.38;1.48;;;;;;;;;;5047838;28;20496;-50
2023/07/27 13:43:15;;;;;;;2.45;1.30;;;;;;;;;;5048893;28;20290;-50
2023/07/27 13:45:41;;;;;;;1.70;1.60;;;;;;;;;;5045636;28;20206;-50
2023/07/27 13:48:07;;;;;;;1.58;1.48;;;;;;;;;;5051181;28;20175;-50
2023/07/27 13:50:33;;;;;;;1.55;1.45;;;;;;;;;;5049283;28;20184;-50
2023/07/27 13:52:59;;;;;;;4.22;1.45;;;;;;;;;;5059951;28;20197;-50
2023/07/27 13:55:25;;;;;;;1.33;1.23;;;;;;;;;;5068145;28;20211;-50
2023/07/27 13:57:51;;;;;;;1.77;1.50;;;;;;;;;;5054269;28;20175;-50
2023/07/27 14:00:17;;;;;;;2.22;1.45;;;;;;;;;;5053243;28;20221;-50
2023/07/27 14:02:43;;;;;;;3.05;1.63;;;;;;;;;;5050754;28;20439;-49
2023/07/27 14:05:09;;;;;;;1.98;1.35;;;;;;;;;;5049795;28;20228;-50
2023/07/27 14:07:35;;;;;;;1.77;1.33;;;;;;;;;;5052601;28;20183;-50
2023/07/27 14:10:02;;;;;;;2.25;1.55;;;;;;;;;;5048087;28;20215;-50
2023/07/27 14:12:28;;;;;;;2.17;1.40;;;;;;;;;;5045738;28;20178;-50
2023/07/27 14:14:54;;;;;;;2.33;1.55;;;;;;;;;;5054345;28;20756;-50
2023/07/27 14:17:20;;;;;;;1.88;1.40;;;;;;;;;;5050960;28;20198;-50
2023/07/27 14:19:46;;;;;;;1.33;1.23;;;;;;;;;;5053158;28;20211;-50
2023/07/27 14:22:12;;;;;;;1.40;1.30;;;;;;;;;;5054893;28;20178;-50
2023/07/27 14:24:38;;;;;;;1.08;1.08;;;;;;;;;;5074165;28;20186;-50
2023/07/27 14:27:04;;;;;;;2.25;1.20;;;;;;;;;;5052001;28;20233;-50
2023/07/27 14:29:30;;;;;;;2.08;1.55;;;;;;;;;;5051622;28;20187;-50
2023/07/27 14:31:56;;;;;;;1.55;1.38;;;;;;;;;;5045446;28;20215;-50
2023/07/27 14:34:22;;;;;;;1.63;1.40;;;;;;;;;;5049985;28;20183;-49
2023/07/27 14:36:48;;;;;;;3.45;1.30;;;;;;;;;;5048234;28;20461;-44
2023/07/27 14:39:14;;;;;;;1.60;1.40;;;;;;;;;;5052849;28;20488;-52
2023/07/27 14:41:40;;;;;;;1.83;1.65;;;;;;;;;;5051970;28;20229;-44